Startpagina
METAR-TAF:

METAR-TAF

Vliegvelden :

Luchthaven Helsinki-Vantaa

Helsinki, Finland

breedte: 60-19N, lengte: 024-58E, hoogte: 51 m

Actueel weer

Dit bericht is 11 minuten geleden gemaakt, om 09:50 UTC
Wind 11 kt uit het zuidwesten
Temperatuur 13°C
Vochtigheid 58%
Druk 995 hPa
Zicht 10 km of meer
Verspreide wolken op 3000 ft

METAR: EFHK 230950Z 22011KT 9999 SCT030 13/05 Q0995 NOSIG

Tijdstip: 13:01 (10:01 UTC)

Verwachting

Dit bericht is 1 uur en het 34 minuten geleden gemaakt, om 08:27 UTC
Verwachting geldig van 23 om 09 UTC tot 24 om 09 UTC
Wind 12 kt uit het zuidwesten
Zicht 10 km of meer
Verspreide wolken op 2500 ft
Tijdelijke
van 23 om 12 UTC tot 23 om 17 UTC
Weinig wolken op 4000 ft, Cumulonimbus.

TAF: EFHK 230827Z 2309/2409 23012KT 9999 SCT025 TEMPO 2312/2317 FEW040CB

Waarnemingen en weersverwachtingen van meer dan 4000 vliegvelden (METAR en TAF).

De beschikbare stations zijn de gele en rode punten op de kaart.

Ga met uw muis naar het station om de naam te zien.

Klik dan om waarnemingen en weersverwachtingen te zien.

kaart wijzigen: klik op de groene knoppen met een zwart kruis om in te zoomen, op de groene knop met een streepje om uit te zoomen of op de groene pijlen voor aangrenzende kaarten.


METAR-TAF: